sensor_id;sensor_type;location;lat;lon;timestamp;pressure;altitude;pressure_sealevel;temperature;humidity
26192;BME280;13935;55.672;37.764;2023-05-20T05:39:09;101035.88;;;17.36;86.70
26192;BME280;13935;55.672;37.764;2023-05-20T05:49:22;101034.31;;;17.11;86.49
26192;BME280;13935;55.672;37.764;2023-05-20T05:50:24;101033.31;;;17.77;83.42
26192;BME280;13935;55.672;37.764;2023-05-20T05:51:27;101035.88;;;17.36;83.95
26192;BME280;13935;55.672;37.764;2023-05-20T05:52:31;101036.59;;;17.54;82.06
26192;BME280;13935;55.672;37.764;2023-05-20T05:55:53;101034.53;;;18.51;76.02
26192;BME280;13935;55.672;37.764;2023-05-20T05:56:55;101034.28;;;18.82;70.59
26192;BME280;13935;55.672;37.764;2023-05-20T05:58:01;101036.72;;;18.19;74.54
26192;BME280;13935;55.672;37.764;2023-05-20T05:59:05;101039.50;;;18.26;75.30
26192;BME280;13935;55.672;37.764;2023-05-20T06:00:11;101035.09;;;18.25;76.08
26192;BME280;13935;55.672;37.764;2023-05-20T06:01:21;101037.81;;;18.89;72.04
26192;BME280;13935;55.672;37.764;2023-05-20T06:02:25;101037.13;;;19.22;69.00
26192;BME280;13935;55.672;37.764;2023-05-20T06:03:34;101037.69;;;19.43;68.40
26192;BME280;13935;55.672;37.764;2023-05-20T06:04:52;101033.09;;;18.79;70.33
26192;BME280;13935;55.672;37.764;2023-05-20T06:05:56;101040.47;;;19.10;69.43
26192;BME280;13935;55.672;37.764;2023-05-20T06:06:59;101037.59;;;19.17;69.36
26192;BME280;13935;55.672;37.764;2023-05-20T06:08:01;101044.84;;;19.11;68.55
26192;BME280;13935;55.672;37.764;2023-05-20T06:09:06;101045.94;;;19.24;69.20
26192;BME280;13935;55.672;37.764;2023-05-20T06:10:10;101035.50;;;18.77;71.32
26192;BME280;13935;55.672;37.764;2023-05-20T06:11:12;101042.81;;;19.15;68.15
26192;BME280;13935;55.672;37.764;2023-05-20T06:12:15;101039.00;;;18.88;69.91
26192;BME280;13935;55.672;37.764;2023-05-20T06:13:19;101037.88;;;18.79;69.14
26192;BME280;13935;55.672;37.764;2023-05-20T06:14:23;101037.78;;;19.70;67.63
26192;BME280;13935;55.672;37.764;2023-05-20T06:15:25;101040.03;;;18.61;68.83
26192;BME280;13935;55.672;37.764;2023-05-20T06:16:30;101046.28;;;18.32;71.39
26192;BME280;13935;55.672;37.764;2023-05-20T06:17:34;101048.38;;;18.71;70.18
26192;BME280;13935;55.672;37.764;2023-05-20T06:18:39;101049.94;;;18.15;70.58
26192;BME280;13935;55.672;37.764;2023-05-20T06:19:42;101048.81;;;18.70;70.05
26192;BME280;13935;55.672;37.764;2023-05-20T06:20:45;101047.47;;;18.31;72.32
26192;BME280;13935;55.672;37.764;2023-05-20T06:21:47;101042.72;;;18.21;72.13
26192;BME280;13935;55.672;37.764;2023-05-20T06:22:49;101053.66;;;18.63;72.50
26192;BME280;13935;55.672;37.764;2023-05-20T06:23:58;101042.59;;;19.36;68.94
26192;BME280;13935;55.672;37.764;2023-05-20T06:25:02;101040.72;;;19.93;64.61
26192;BME280;13935;55.672;37.764;2023-05-20T06:26:07;101044.53;;;20.39;61.31
26192;BME280;13935;55.672;37.764;2023-05-20T06:27:09;101039.84;;;20.55;59.71
26192;BME280;13935;55.672;37.764;2023-05-20T06:28:12;101043.09;;;19.98;62.68
26192;BME280;13935;55.672;37.764;2023-05-20T06:29:16;101040.16;;;20.34;59.48
26192;BME280;13935;55.672;37.764;2023-05-20T06:30:19;101038.78;;;20.95;58.60
26192;BME280;13935;55.672;37.764;2023-05-20T06:31:22;101043.78;;;21.52;57.51
26192;BME280;13935;55.672;37.764;2023-05-20T06:32:26;101039.66;;;21.15;57.14
26192;BME280;13935;55.672;37.764;2023-05-20T06:33:30;101036.81;;;21.38;55.84
26192;BME280;13935;55.672;37.764;2023-05-20T06:34:36;101036.16;;;20.58;57.41
26192;BME280;13935;55.672;37.764;2023-05-20T06:35:38;101036.47;;;20.90;56.36
26192;BME280;13935;55.672;37.764;2023-05-20T06:36:40;101038.13;;;21.52;54.62
26192;BME280;13935;55.672;37.764;2023-05-20T06:37:43;101036.78;;;21.18;55.45
26192;BME280;13935;55.672;37.764;2023-05-20T06:38:45;101036.22;;;21.46;55.34
26192;BME280;13935;55.672;37.764;2023-05-20T06:39:50;101040.81;;;20.68;57.20
26192;BME280;13935;55.672;37.764;2023-05-20T06:40:54;101043.28;;;20.92;56.57
26192;BME280;13935;55.672;37.764;2023-05-20T06:41:56;101040.25;;;21.49;53.99
26192;BME280;13935;55.672;37.764;2023-05-20T06:43:03;101042.34;;;21.83;52.90
26192;BME280;13935;55.672;37.764;2023-05-20T06:44:39;101035.69;;;22.48;50.87
26192;BME280;13935;55.672;37.764;2023-05-20T06:46:07;101027.41;;;22.22;50.18
26192;BME280;13935;55.672;37.764;2023-05-20T06:47:13;101039.06;;;23.22;47.37
26192;BME280;13935;55.672;37.764;2023-05-20T06:48:17;101033.53;;;22.36;47.79
26192;BME280;13935;55.672;37.764;2023-05-20T06:49:20;101041.78;;;21.92;49.66
26192;BME280;13935;55.672;37.764;2023-05-20T06:50:22;101035.34;;;22.46;48.40
26192;BME280;13935;55.672;37.764;2023-05-20T06:51:26;101037.84;;;21.05;50.97
26192;BME280;13935;55.672;37.764;2023-05-20T06:52:29;101034.72;;;20.77;52.41
26192;BME280;13935;55.672;37.764;2023-05-20T06:53:31;101042.28;;;21.25;51.27
26192;BME280;13935;55.672;37.764;2023-05-20T06:54:33;101034.75;;;21.19;51.74
26192;BME280;13935;55.672;37.764;2023-05-20T06:55:40;101034.16;;;20.32;51.96
26192;BME280;13935;55.672;37.764;2023-05-20T06:56:44;101034.00;;;20.16;54.25
26192;BME280;13935;55.672;37.764;2023-05-20T06:57:47;101029.81;;;19.65;54.65
26192;BME280;13935;55.672;37.764;2023-05-20T06:58:55;101040.41;;;20.17;54.07
26192;BME280;13935;55.672;37.764;2023-05-20T06:59:57;101043.16;;;20.20;53.97
26192;BME280;13935;55.672;37.764;2023-05-20T07:00:59;101049.53;;;19.61;56.20
26192;BME280;13935;55.672;37.764;2023-05-20T07:02:03;101034.47;;;20.11;54.20
26192;BME280;13935;55.672;37.764;2023-05-20T07:03:06;101039.09;;;20.25;53.99
26192;BME280;13935;55.672;37.764;2023-05-20T07:04:08;101035.94;;;19.90;54.60
26192;BME280;13935;55.672;37.764;2023-05-20T07:05:11;101037.56;;;21.19;53.36
26192;BME280;13935;55.672;37.764;2023-05-20T07:06:13;101034.72;;;22.19;48.69
26192;BME280;13935;55.672;37.764;2023-05-20T07:07:15;101034.91;;;21.73;48.09
26192;BME280;13935;55.672;37.764;2023-05-20T07:08:19;101034.59;;;21.49;48.64
26192;BME280;13935;55.672;37.764;2023-05-20T07:09:23;101033.34;;;20.84;50.85
26192;BME280;13935;55.672;37.764;2023-05-20T07:10:25;101041.13;;;20.77;51.29
26192;BME280;13935;55.672;37.764;2023-05-20T07:11:27;101036.72;;;21.22;50.41
26192;BME280;13935;55.672;37.764;2023-05-20T07:12:32;101042.44;;;21.60;49.13
26192;BME280;13935;55.672;37.764;2023-05-20T07:13:41;101042.72;;;21.01;49.08
26192;BME280;13935;55.672;37.764;2023-05-20T07:14:43;101049.72;;;21.58;48.42
26192;BME280;13935;55.672;37.764;2023-05-20T07:15:45;101035.84;;;22.06;48.39
26192;BME280;13935;55.672;37.764;2023-05-20T07:16:49;101034.44;;;22.33;45.95
26192;BME280;13935;55.672;37.764;2023-05-20T07:17:51;101036.00;;;22.69;45.48
26192;BME280;13935;55.672;37.764;2023-05-20T07:18:54;101029.91;;;21.61;48.23
26192;BME280;13935;55.672;37.764;2023-05-20T07:19:56;101033.63;;;21.97;47.86
26192;BME280;13935;55.672;37.764;2023-05-20T07:20:58;101021.88;;;21.18;50.22
26192;BME280;13935;55.672;37.764;2023-05-20T07:22:22;101035.28;;;21.33;50.68
26192;BME280;13935;55.672;37.764;2023-05-20T07:23:43;101027.56;;;20.69;52.01
26192;BME280;13935;55.672;37.764;2023-05-20T07:24:45;101034.91;;;21.73;51.65
26192;BME280;13935;55.672;37.764;2023-05-20T07:25:47;101034.31;;;22.72;48.95
26192;BME280;13935;55.672;37.764;2023-05-20T07:26:50;101029.19;;;21.96;49.48
26192;BME280;13935;55.672;37.764;2023-05-20T07:27:52;101034.53;;;22.10;47.07
26192;BME280;13935;55.672;37.764;2023-05-20T07:28:55;101027.09;;;22.00;48.16
26192;BME280;13935;55.672;37.764;2023-05-20T07:29:57;101035.81;;;21.05;48.26
26192;BME280;13935;55.672;37.764;2023-05-20T07:30:59;101039.03;;;20.28;50.64
26192;BME280;13935;55.672;37.764;2023-05-20T07:32:03;101032.66;;;21.00;50.20
26192;BME280;13935;55.672;37.764;2023-05-20T07:33:09;101032.34;;;21.98;49.43
26192;BME280;13935;55.672;37.764;2023-05-20T07:34:11;101031.44;;;22.05;47.35
26192;BME280;13935;55.672;37.764;2023-05-20T07:35:14;101036.09;;;21.76;47.75
26192;BME280;13935;55.672;37.764;2023-05-20T07:36:18;101030.81;;;21.36;48.71
26192;BME280;13935;55.672;37.764;2023-05-20T07:37:23;101038.44;;;21.97;48.54
26192;BME280;13935;55.672;37.764;2023-05-20T07:38:25;101028.19;;;22.57;46.59
26192;BME280;13935;55.672;37.764;2023-05-20T07:39:35;101039.16;;;22.71;43.24
26192;BME280;13935;55.672;37.764;2023-05-20T07:40:38;101042.22;;;23.97;41.71
26192;BME280;13935;55.672;37.764;2023-05-20T07:41:41;101033.69;;;24.38;39.65
26192;BME280;13935;55.672;37.764;2023-05-20T07:42:45;101044.25;;;23.40;41.40
26192;BME280;13935;55.672;37.764;2023-05-20T07:43:57;101030.28;;;22.02;42.99
26192;BME280;13935;55.672;37.764;2023-05-20T07:45:07;101031.88;;;21.64;44.13
26192;BME280;13935;55.672;37.764;2023-05-20T07:46:11;101035.34;;;22.62;42.43
26192;BME280;13935;55.672;37.764;2023-05-20T07:47:14;101032.94;;;23.68;40.90
26192;BME280;13935;55.672;37.764;2023-05-20T07:48:18;101030.88;;;22.80;40.10
26192;BME280;13935;55.672;37.764;2023-05-20T07:49:38;101029.09;;;22.54;41.17
26192;BME280;13935;55.672;37.764;2023-05-20T07:50:41;101020.41;;;21.52;41.08
26192;BME280;13935;55.672;37.764;2023-05-20T07:51:46;101016.06;;;22.25;40.61
26192;BME280;13935;55.672;37.764;2023-05-20T07:52:49;101022.09;;;22.43;40.76
26192;BME280;13935;55.672;37.764;2023-05-20T07:54:01;101022.34;;;21.58;41.90
26192;BME280;13935;55.672;37.764;2023-05-20T07:55:04;101016.03;;;22.60;41.92
26192;BME280;13935;55.672;37.764;2023-05-20T07:56:06;101016.81;;;22.93;40.19
26192;BME280;13935;55.672;37.764;2023-05-20T07:57:08;101022.19;;;23.63;39.13
26192;BME280;13935;55.672;37.764;2023-05-20T07:58:10;101020.97;;;24.05;37.75
26192;BME280;13935;55.672;37.764;2023-05-20T07:59:14;101026.72;;;22.85;38.74
26192;BME280;13935;55.672;37.764;2023-05-20T08:00:19;101018.38;;;21.95;40.60
26192;BME280;13935;55.672;37.764;2023-05-20T08:01:21;101015.16;;;21.35;41.92
26192;BME280;13935;55.672;37.764;2023-05-20T08:02:23;101015.91;;;21.77;42.54
26192;BME280;13935;55.672;37.764;2023-05-20T08:03:26;101017.56;;;22.65;40.09
26192;BME280;13935;55.672;37.764;2023-05-20T08:04:35;101034.84;;;22.83;39.37
26192;BME280;13935;55.672;37.764;2023-05-20T08:05:38;101011.06;;;23.28;37.59
26192;BME280;13935;55.672;37.764;2023-05-20T08:06:42;101011.75;;;22.72;38.71
26192;BME280;13935;55.672;37.764;2023-05-20T08:07:50;101017.88;;;23.30;39.31
26192;BME280;13935;55.672;37.764;2023-05-20T08:08:55;101002.09;;;24.39;36.88
26192;BME280;13935;55.672;37.764;2023-05-20T08:10:03;101015.63;;;23.66;37.32
26192;BME280;13935;55.672;37.764;2023-05-20T08:11:06;101009.38;;;23.30;38.45
26192;BME280;13935;55.672;37.764;2023-05-20T08:12:08;101011.72;;;22.88;38.46
26192;BME280;13935;55.672;37.764;2023-05-20T08:13:10;101009.91;;;21.75;39.58
26192;BME280;13935;55.672;37.764;2023-05-20T08:14:12;101006.97;;;22.69;38.95
26192;BME280;13935;55.672;37.764;2023-05-20T08:15:17;101009.78;;;22.18;39.00
26192;BME280;13935;55.672;37.764;2023-05-20T08:16:20;101012.06;;;21.49;40.61
26192;BME280;13935;55.672;37.764;2023-05-20T08:17:23;101020.75;;;21.57;41.63
26192;BME280;13935;55.672;37.764;2023-05-20T08:18:34;101009.47;;;21.77;40.78
26192;BME280;13935;55.672;37.764;2023-05-20T08:19:37;101015.41;;;21.82;41.07
26192;BME280;13935;55.672;37.764;2023-05-20T08:20:40;101015.19;;;21.93;39.81
26192;BME280;13935;55.672;37.764;2023-05-20T08:21:45;101013.84;;;22.84;39.34
26192;BME280;13935;55.672;37.764;2023-05-20T08:22:48;101020.00;;;22.95;39.16
26192;BME280;13935;55.672;37.764;2023-05-20T08:23:50;101005.19;;;23.06;39.01
26192;BME280;13935;55.672;37.764;2023-05-20T08:24:54;101014.72;;;22.81;38.88
26192;BME280;13935;55.672;37.764;2023-05-20T08:25:56;101010.16;;;22.71;39.11
26192;BME280;13935;55.672;37.764;2023-05-20T08:26:59;101008.69;;;22.31;39.89
26192;BME280;13935;55.672;37.764;2023-05-20T08:28:02;101009.13;;;21.33;41.00
26192;BME280;13935;55.672;37.764;2023-05-20T08:29:12;101000.94;;;21.19;42.61
26192;BME280;13935;55.672;37.764;2023-05-20T08:30:15;101002.69;;;21.74;41.80
26192;BME280;13935;55.672;37.764;2023-05-20T08:31:24;101005.59;;;21.29;42.58
26192;BME280;13935;55.672;37.764;2023-05-20T08:32:28;101003.44;;;21.17;43.30
26192;BME280;13935;55.672;37.764;2023-05-20T08:33:30;101000.31;;;21.31;43.00
26192;BME280;13935;55.672;37.764;2023-05-20T08:34:35;101007.81;;;21.18;43.06
26192;BME280;13935;55.672;37.764;2023-05-20T08:35:40;101012.97;;;21.00;43.16
26192;BME280;13935;55.672;37.764;2023-05-20T08:36:43;101005.38;;;20.74;44.37
26192;BME280;13935;55.672;37.764;2023-05-20T08:37:55;101006.38;;;20.11;43.96
26192;BME280;13935;55.672;37.764;2023-05-20T08:38:59;101005.78;;;20.23;44.65
26192;BME280;13935;55.672;37.764;2023-05-20T08:40:05;101007.53;;;20.40;44.45
26192;BME280;13935;55.672;37.764;2023-05-20T08:41:08;101012.81;;;20.61;44.14
26192;BME280;13935;55.672;37.764;2023-05-20T08:42:12;101001.47;;;20.15;44.48
26192;BME280;13935;55.672;37.764;2023-05-20T08:43:14;101001.66;;;20.02;45.08
26192;BME280;13935;55.672;37.764;2023-05-20T08:44:18;101012.13;;;20.27;45.22
26192;BME280;13935;55.672;37.764;2023-05-20T08:45:20;101010.06;;;20.05;46.27
26192;BME280;13935;55.672;37.764;2023-05-20T08:46:29;101009.22;;;20.08;46.16
26192;BME280;13935;55.672;37.764;2023-05-20T08:47:32;101016.19;;;19.97;46.56
26192;BME280;13935;55.672;37.764;2023-05-20T08:48:35;101008.69;;;20.16;46.46
26192;BME280;13935;55.672;37.764;2023-05-20T08:49:48;101010.50;;;19.37;46.89
26192;BME280;13935;55.672;37.764;2023-05-20T08:50:51;101016.88;;;19.41;47.90
26192;BME280;13935;55.672;37.764;2023-05-20T08:51:54;101014.25;;;19.57;46.97
26192;BME280;13935;55.672;37.764;2023-05-20T08:52:56;101008.53;;;19.67;47.70
26192;BME280;13935;55.672;37.764;2023-05-20T08:54:01;101003.16;;;19.50;46.98
26192;BME280;13935;55.672;37.764;2023-05-20T08:55:06;101011.09;;;19.55;46.17
26192;BME280;13935;55.672;37.764;2023-05-20T08:56:11;101001.63;;;20.05;46.25
26192;BME280;13935;55.672;37.764;2023-05-20T08:57:15;101006.72;;;19.84;46.21
26192;BME280;13935;55.672;37.764;2023-05-20T08:58:19;101024.78;;;19.83;45.78
26192;BME280;13935;55.672;37.764;2023-05-20T08:59:22;101015.13;;;19.54;46.15
26192;BME280;13935;55.672;37.764;2023-05-20T09:00:24;101015.44;;;19.93;45.89
26192;BME280;13935;55.672;37.764;2023-05-20T09:01:29;101007.59;;;19.44;46.23
26192;BME280;13935;55.672;37.764;2023-05-20T09:02:32;101010.25;;;19.58;46.46
26192;BME280;13935;55.672;37.764;2023-05-20T09:03:34;101018.75;;;19.14;48.37
26192;BME280;13935;55.672;37.764;2023-05-20T09:04:37;101023.31;;;19.38;47.53
26192;BME280;13935;55.672;37.764;2023-05-20T09:05:45;101015.47;;;19.23;46.59
26192;BME280;13935;55.672;37.764;2023-05-20T09:06:54;101011.47;;;19.20;47.21
26192;BME280;13935;55.672;37.764;2023-05-20T09:08:06;101009.81;;;19.26;47.54
26192;BME280;13935;55.672;37.764;2023-05-20T09:09:11;101004.72;;;19.51;47.19
26192;BME280;13935;55.672;37.764;2023-05-20T09:10:13;101007.84;;;19.23;47.47
26192;BME280;13935;55.672;37.764;2023-05-20T09:11:15;101014.19;;;18.87;48.79
26192;BME280;13935;55.672;37.764;2023-05-20T09:12:19;101016.88;;;19.41;48.33
26192;BME280;13935;55.672;37.764;2023-05-20T09:13:23;101012.19;;;19.31;49.39
26192;BME280;13935;55.672;37.764;2023-05-20T09:16:33;101022.69;;;18.76;52.24
26192;BME280;13935;55.672;37.764;2023-05-20T09:17:36;101023.31;;;18.51;53.25
26192;BME280;13935;55.672;37.764;2023-05-20T09:18:57;101029.81;;;18.37;53.74
26192;BME280;13935;55.672;37.764;2023-05-20T09:20:15;101018.69;;;18.77;53.36
26192;BME280;13935;55.672;37.764;2023-05-20T09:21:46;101014.78;;;18.07;55.04
26192;BME280;13935;55.672;37.764;2023-05-20T09:23:00;101025.09;;;18.24;54.94
26192;BME280;13935;55.672;37.764;2023-05-20T09:24:23;101020.88;;;18.53;54.52
26192;BME280;13935;55.672;37.764;2023-05-20T09:25:27;101025.69;;;18.56;53.38
26192;BME280;13935;55.672;37.764;2023-05-20T09:26:34;101028.88;;;19.01;51.89
26192;BME280;13935;55.672;37.764;2023-05-20T09:27:38;101012.78;;;19.12;50.15
26192;BME280;13935;55.672;37.764;2023-05-20T09:28:46;101012.88;;;18.98;49.66
26192;BME280;13935;55.672;37.764;2023-05-20T09:29:50;101019.59;;;19.08;50.28
26192;BME280;13935;55.672;37.764;2023-05-20T09:30:57;101026.03;;;19.45;50.13
26192;BME280;13935;55.672;37.764;2023-05-20T09:32:02;101025.66;;;19.06;50.94
26192;BME280;13935;55.672;37.764;2023-05-20T09:33:06;101025.38;;;18.90;53.02
26192;BME280;13935;55.672;37.764;2023-05-20T09:34:56;101021.41;;;18.88;51.98
26192;BME280;13935;55.672;37.764;2023-05-20T09:36:18;101023.38;;;19.35;52.26
26192;BME280;13935;55.672;37.764;2023-05-20T09:38:57;101029.25;;;19.03;53.67
26192;BME280;13935;55.672;37.764;2023-05-20T09:40:47;101029.22;;;19.07;52.61
26192;BME280;13935;55.672;37.764;2023-05-20T09:42:28;101031.53;;;18.71;53.10
26192;BME280;13935;55.672;37.764;2023-05-20T09:43:53;101030.50;;;18.99;52.66
26192;BME280;13935;55.672;37.764;2023-05-20T09:44:59;101026.81;;;19.12;52.05
26192;BME280;13935;55.672;37.764;2023-05-20T09:46:19;101025.03;;;19.65;50.84
26192;BME280;13935;55.672;37.764;2023-05-20T09:47:22;101024.59;;;19.67;51.33
26192;BME280;13935;55.672;37.764;2023-05-20T09:48:28;101024.59;;;19.67;49.71
26192;BME280;13935;55.672;37.764;2023-05-20T09:50:00;101026.50;;;19.40;50.36
26192;BME280;13935;55.672;37.764;2023-05-20T09:51:05;101026.44;;;19.10;52.93
26192;BME280;13935;55.672;37.764;2023-05-20T09:52:15;101026.66;;;19.26;52.41
26192;BME280;13935;55.672;37.764;2023-05-20T09:53:26;101036.09;;;19.42;52.14
26192;BME280;13935;55.672;37.764;2023-05-20T09:54:35;101032.81;;;19.47;50.90
26192;BME280;13935;55.672;37.764;2023-05-20T09:55:37;101037.06;;;19.29;50.53
26192;BME280;13935;55.672;37.764;2023-05-20T09:56:40;101032.66;;;18.84;50.75
26192;BME280;13935;55.672;37.764;2023-05-20T09:57:43;101040.44;;;18.63;51.51
26192;BME280;13935;55.672;37.764;2023-05-20T09:58:46;101026.72;;;18.18;53.08
26192;BME280;13935;55.672;37.764;2023-05-20T09:59:51;101034.19;;;18.42;53.43
26192;BME280;13935;55.672;37.764;2023-05-20T10:00:54;101040.00;;;18.64;52.99
26192;BME280;13935;55.672;37.764;2023-05-20T10:01:56;101036.94;;;18.49;53.01
26192;BME280;13935;55.672;37.764;2023-05-20T10:02:58;101034.44;;;18.61;53.56
26192;BME280;13935;55.672;37.764;2023-05-20T10:04:03;101042.69;;;18.28;54.44
26192;BME280;13935;55.672;37.764;2023-05-20T10:05:13;101030.50;;;17.80;56.65
26192;BME280;13935;55.672;37.764;2023-05-20T10:14:41;101042.16;;;17.75;58.40
26192;BME280;13935;55.672;37.764;2023-05-20T10:16:03;101044.09;;;17.85;58.80
26192;BME280;13935;55.672;37.764;2023-05-20T10:19:36;101058.25;;;17.36;60.98
26192;BME280;13935;55.672;37.764;2023-05-20T10:20:47;101049.84;;;17.43;60.30
26192;BME280;13935;55.672;37.764;2023-05-20T10:22:02;101049.06;;;17.22;62.31
26192;BME280;13935;55.672;37.764;2023-05-20T10:23:04;101042.31;;;17.26;61.94
26192;BME280;13935;55.672;37.764;2023-05-20T10:24:10;101055.03;;;17.34;61.31
26192;BME280;13935;55.672;37.764;2023-05-20T10:25:23;101043.06;;;17.16;61.36
26192;BME280;13935;55.672;37.764;2023-05-20T10:26:34;101057.06;;;17.16;60.69
26192;BME280;13935;55.672;37.764;2023-05-20T10:27:44;101057.47;;;16.98;59.21
26192;BME280;13935;55.672;37.764;2023-05-20T10:28:48;101055.91;;;16.83;57.97
26192;BME280;13935;55.672;37.764;2023-05-20T10:30:00;101047.09;;;17.02;57.91
26192;BME280;13935;55.672;37.764;2023-05-20T10:31:19;101046.28;;;16.94;57.51
26192;BME280;13935;55.672;37.764;2023-05-20T10:33:58;101053.44;;;17.44;56.24
26192;BME280;13935;55.672;37.764;2023-05-20T10:35:07;101042.97;;;17.65;55.91
26192;BME280;13935;55.672;37.764;2023-05-20T10:36:28;101053.38;;;17.65;55.75
26192;BME280;13935;55.672;37.764;2023-05-20T10:37:42;101046.81;;;17.99;56.07
26192;BME280;13935;55.672;37.764;2023-05-20T10:38:55;101045.44;;;17.49;55.92
26192;BME280;13935;55.672;37.764;2023-05-20T10:40:24;101049.28;;;17.83;55.41
26192;BME280;13935;55.672;37.764;2023-05-20T10:41:27;101043.97;;;18.13;55.46
26192;BME280;13935;55.672;37.764;2023-05-20T10:42:30;101042.44;;;17.98;55.97
26192;BME280;13935;55.672;37.764;2023-05-20T10:43:32;101044.34;;;18.08;55.35
26192;BME280;13935;55.672;37.764;2023-05-20T10:44:46;101044.44;;;18.01;55.56
26192;BME280;13935;55.672;37.764;2023-05-20T10:45:53;101046.75;;;18.13;56.19
26192;BME280;13935;55.672;37.764;2023-05-20T10:47:04;101040.38;;;18.05;55.63
26192;BME280;13935;55.672;37.764;2023-05-20T10:48:32;101037.13;;;18.21;54.61
26192;BME280;13935;55.672;37.764;2023-05-20T10:49:43;101035.22;;;17.97;54.94
26192;BME280;13935;55.672;37.764;2023-05-20T10:50:46;101048.72;;;18.16;54.21
26192;BME280;13935;55.672;37.764;2023-05-20T10:51:49;101038.28;;;18.27;54.27
26192;BME280;13935;55.672;37.764;2023-05-20T10:52:52;101040.41;;;18.02;54.72
26192;BME280;13935;55.672;37.764;2023-05-20T10:53:54;101035.59;;;18.02;54.95
26192;BME280;13935;55.672;37.764;2023-05-20T10:54:59;101039.69;;;17.84;54.63
26192;BME280;13935;55.672;37.764;2023-05-20T10:56:02;101041.22;;;17.99;55.67
26192;BME280;13935;55.672;37.764;2023-05-20T10:57:07;101044.50;;;17.80;55.63
26192;BME280;13935;55.672;37.764;2023-05-20T10:58:10;101038.03;;;17.97;56.37
26192;BME280;13935;55.672;37.764;2023-05-20T10:59:13;101034.03;;;17.98;55.89
26192;BME280;13935;55.672;37.764;2023-05-20T11:00:18;101035.66;;;17.92;56.21
26192;BME280;13935;55.672;37.764;2023-05-20T11:01:28;101045.19;;;18.08;56.48
26192;BME280;13935;55.672;37.764;2023-05-20T11:05:37;101036.31;;;18.17;56.55
26192;BME280;13935;55.672;37.764;2023-05-20T11:09:03;101036.31;;;18.17;54.82
26192;BME280;13935;55.672;37.764;2023-05-20T11:24:01;101031.84;;;17.44;59.17
26192;BME280;13935;55.672;37.764;2023-05-20T11:34:20;101045.44;;;17.39;56.16
26192;BME280;13935;55.672;37.764;2023-05-20T11:35:31;101039.09;;;17.31;54.08
26192;BME280;13935;55.672;37.764;2023-05-20T11:36:40;101052.66;;;17.36;53.51
26192;BME280;13935;55.672;37.764;2023-05-20T11:37:53;101052.25;;;17.34;53.14
26192;BME280;13935;55.672;37.764;2023-05-20T11:39:22;101051.84;;;17.39;53.50
26192;BME280;13935;55.672;37.764;2023-05-20T11:44:13;101051.00;;;17.53;53.88
26192;BME280;13935;55.672;37.764;2023-05-20T11:46:50;101051.84;;;17.39;50.84
26192;BME280;13935;55.672;37.764;2023-05-20T11:48:01;101055.03;;;17.38;48.55
26192;BME280;13935;55.672;37.764;2023-05-20T11:49:16;101050.28;;;17.31;48.40
26192;BME280;13935;55.672;37.764;2023-05-20T11:54:25;101056.63;;;17.21;49.07
26192;BME280;13935;55.672;37.764;2023-05-20T11:55:53;101048.66;;;17.23;50.26
26192;BME280;13935;55.672;37.764;2023-05-20T11:57:38;101045.88;;;17.30;49.56
26192;BME280;13935;55.672;37.764;2023-05-20T11:59:13;101041.44;;;17.43;48.76
26192;BME280;13935;55.672;37.764;2023-05-20T12:00:25;101040.25;;;17.44;48.70
26192;BME280;13935;55.672;37.764;2023-05-20T12:01:39;101045.41;;;17.56;48.10
26192;BME280;13935;55.672;37.764;2023-05-20T12:02:50;101043.81;;;17.55;47.36
26192;BME280;13935;55.672;37.764;2023-05-20T12:14:51;101041.78;;;17.56;57.19
26192;BME280;13935;55.672;37.764;2023-05-20T12:25:24;101035.63;;;17.99;55.43
26192;BME280;13935;55.672;37.764;2023-05-20T12:32:01;101041.19;;;18.06;53.21
26192;BME280;13935;55.672;37.764;2023-05-20T12:42:45;101030.84;;;17.89;54.50
26192;BME280;13935;55.672;37.764;2023-05-20T12:59:42;101028.13;;;18.50;50.02
26192;BME280;13935;55.672;37.764;2023-05-20T13:00:45;101029.13;;;18.73;49.49
26192;BME280;13935;55.672;37.764;2023-05-20T13:01:47;101022.28;;;18.78;48.14
26192;BME280;13935;55.672;37.764;2023-05-20T13:02:50;101028.03;;;18.61;48.16
26192;BME280;13935;55.672;37.764;2023-05-20T13:09:34;101020.94;;;18.46;47.69
26192;BME280;13935;55.672;37.764;2023-05-20T13:10:37;101025.75;;;18.45;47.55
26192;BME280;13935;55.672;37.764;2023-05-20T13:11:39;101026.88;;;18.58;47.64
26192;BME280;13935;55.672;37.764;2023-05-20T13:12:41;101029.63;;;18.62;46.51
26192;BME280;13935;55.672;37.764;2023-05-20T13:13:46;101039.50;;;18.26;46.60
26192;BME280;13935;55.672;37.764;2023-05-20T13:14:50;101027.19;;;18.02;46.75
26192;BME280;13935;55.672;37.764;2023-05-20T13:15:53;101031.38;;;18.42;46.46
26192;BME280;13935;55.672;37.764;2023-05-20T13:16:55;101039.44;;;18.33;46.67
26192;BME280;13935;55.672;37.764;2023-05-20T13:17:57;101037.59;;;18.66;46.62
26192;BME280;13935;55.672;37.764;2023-05-20T13:19:02;101027.91;;;18.78;45.42
26192;BME280;13935;55.672;37.764;2023-05-20T13:20:05;101038.69;;;18.79;43.84
26192;BME280;13935;55.672;37.764;2023-05-20T13:21:08;101035.63;;;18.63;44.48
26192;BME280;13935;55.672;37.764;2023-05-20T13:22:11;101039.28;;;18.57;44.60
26192;BME280;13935;55.672;37.764;2023-05-20T13:23:13;101033.56;;;18.71;44.86
26192;BME280;13935;55.672;37.764;2023-05-20T13:24:16;101039.19;;;18.71;44.86
26192;BME280;13935;55.672;37.764;2023-05-20T13:25:18;101031.09;;;18.76;44.15